sensor_id;sensor_type;location;lat;lon;timestamp;pressure;altitude;pressure_sealevel;temperature;humidity
1371;BME280;14306;49.942;11.570;2023-08-06T00:01:04;96802.34;;;17.27;97.64
1371;BME280;14306;49.942;11.570;2023-08-06T00:03:32;96794.44;;;17.03;99.87
1371;BME280;14306;49.942;11.570;2023-08-06T00:06:00;96793.84;;;16.94;100.00
1371;BME280;14306;49.942;11.570;2023-08-06T00:08:28;96798.03;;;17.07;100.00
1371;BME280;14306;49.942;11.570;2023-08-06T00:10:56;96796.88;;;17.08;100.00
1371;BME280;14306;49.942;11.570;2023-08-06T00:13:23;96790.16;;;16.68;100.00
1371;BME280;14306;49.942;11.570;2023-08-06T00:15:52;96783.91;;;16.86;100.00
1371;BME280;14306;49.942;11.570;2023-08-06T00:18:20;96773.31;;;16.66;100.00
1371;BME280;14306;49.942;11.570;2023-08-06T00:20:48;96770.16;;;16.83;100.00
1371;BME280;14306;49.942;11.570;2023-08-06T00:23:16;96772.75;;;16.76;100.00
1371;BME280;14306;49.942;11.570;2023-08-06T00:25:44;96773.06;;;16.90;100.00
1371;BME280;14306;49.942;11.570;2023-08-06T00:28:12;96778.03;;;17.03;100.00
1371;BME280;14306;49.942;11.570;2023-08-06T00:30:40;96783.91;;;16.86;100.00
1371;BME280;14306;49.942;11.570;2023-08-06T00:33:09;96775.00;;;16.89;100.00
1371;BME280;14306;49.942;11.570;2023-08-06T00:35:37;96778.03;;;17.03;100.00
1371;BME280;14306;49.942;11.570;2023-08-06T00:38:05;96774.63;;;16.91;100.00
1371;BME280;14306;49.942;11.570;2023-08-06T00:40:33;96773.13;;;16.93;100.00
1371;BME280;14306;49.942;11.570;2023-08-06T00:43:01;96771.25;;;16.97;100.00
1371;BME280;14306;49.942;11.570;2023-08-06T00:45:29;96771.91;;;16.91;100.00
1371;BME280;14306;49.942;11.570;2023-08-06T00:47:57;96769.72;;;16.81;100.00
1371;BME280;14306;49.942;11.570;2023-08-06T00:50:27;96764.91;;;16.93;100.00
1371;BME280;14306;49.942;11.570;2023-08-06T00:52:56;96764.25;;;16.62;100.00
1371;BME280;14306;49.942;11.570;2023-08-06T00:55:24;96761.13;;;16.44;100.00
1371;BME280;14306;49.942;11.570;2023-08-06T00:57:52;96757.69;;;16.32;100.00
1371;BME280;14306;49.942;11.570;2023-08-06T01:00:24;96761.31;;;16.36;100.00
1371;BME280;14306;49.942;11.570;2023-08-06T01:02:53;96762.44;;;16.50;100.00
1371;BME280;14306;49.942;11.570;2023-08-06T01:05:21;96758.38;;;16.44;100.00
1371;BME280;14306;49.942;11.570;2023-08-06T01:08:05;96755.91;;;16.39;100.00
1371;BME280;14306;49.942;11.570;2023-08-06T01:10:46;96757.97;;;16.42;100.00
1371;BME280;14306;49.942;11.570;2023-08-06T01:13:24;96755.03;;;16.35;100.00
1371;BME280;14306;49.942;11.570;2023-08-06T01:15:55;96755.31;;;16.46;100.00
1371;BME280;14306;49.942;11.570;2023-08-06T01:18:24;96758.25;;;16.56;100.00
1371;BME280;14306;49.942;11.570;2023-08-06T01:20:53;96753.44;;;16.50;100.00
1371;BME280;14306;49.942;11.570;2023-08-06T01:23:22;96753.00;;;16.48;100.00
1371;BME280;14306;49.942;11.570;2023-08-06T01:25:58;96760.22;;;16.56;100.00
1371;BME280;14306;49.942;11.570;2023-08-06T01:28:34;96755.31;;;16.65;100.00
1371;BME280;14306;49.942;11.570;2023-08-06T01:31:07;96757.03;;;16.54;100.00
1371;BME280;14306;49.942;11.570;2023-08-06T01:33:38;96744.72;;;16.44;100.00
1371;BME280;14306;49.942;11.570;2023-08-06T01:36:11;96747.22;;;16.68;100.00
1371;BME280;14306;49.942;11.570;2023-08-06T01:38:39;96740.72;;;16.57;100.00
1371;BME280;14306;49.942;11.570;2023-08-06T01:41:07;96739.28;;;16.63;100.00
1371;BME280;14306;49.942;11.570;2023-08-06T01:43:35;96742.09;;;16.86;100.00
1371;BME280;14306;49.942;11.570;2023-08-06T01:46:03;96738.97;;;16.87;100.00
1371;BME280;14306;49.942;11.570;2023-08-06T01:48:31;96741.22;;;17.01;100.00
1371;BME280;14306;49.942;11.570;2023-08-06T01:50:59;96741.09;;;16.94;100.00
1371;BME280;14306;49.942;11.570;2023-08-06T01:53:28;96724.44;;;16.83;100.00
1371;BME280;14306;49.942;11.570;2023-08-06T01:55:56;96733.94;;;16.70;100.00
1371;BME280;14306;49.942;11.570;2023-08-06T01:58:24;96739.72;;;17.03;100.00
1371;BME280;14306;49.942;11.570;2023-08-06T02:00:52;96734.38;;;17.10;100.00
1371;BME280;14306;49.942;11.570;2023-08-06T02:03:20;96728.59;;;17.15;100.00
1371;BME280;14306;49.942;11.570;2023-08-06T02:05:48;96728.44;;;16.86;100.00
1371;BME280;14306;49.942;11.570;2023-08-06T02:08:18;96720.78;;;16.95;100.00
1371;BME280;14306;49.942;11.570;2023-08-06T02:10:47;96720.13;;;17.01;100.00
1371;BME280;14306;49.942;11.570;2023-08-06T02:13:15;96722.13;;;17.04;100.00
1371;BME280;14306;49.942;11.570;2023-08-06T02:15:44;96714.66;;;17.01;100.00
1371;BME280;14306;49.942;11.570;2023-08-06T02:18:13;96710.38;;;17.04;100.00
1371;BME280;14306;49.942;11.570;2023-08-06T02:20:42;96706.72;;;17.15;99.72
1371;BME280;14306;49.942;11.570;2023-08-06T02:23:09;96711.75;;;17.13;100.00
1371;BME280;14306;49.942;11.570;2023-08-06T02:25:37;96707.28;;;17.05;100.00
1371;BME280;14306;49.942;11.570;2023-08-06T02:28:07;96703.25;;;17.18;99.83
1371;BME280;14306;49.942;11.570;2023-08-06T02:30:34;96707.78;;;17.11;99.64
1371;BME280;14306;49.942;11.570;2023-08-06T02:33:02;96717.63;;;17.34;99.86
1371;BME280;14306;49.942;11.570;2023-08-06T02:35:30;96710.78;;;17.44;98.33
1371;BME280;14306;49.942;11.570;2023-08-06T02:37:58;96701.56;;;17.55;98.07
1371;BME280;14306;49.942;11.570;2023-08-06T02:40:26;96706.31;;;17.58;97.77
1371;BME280;14306;49.942;11.570;2023-08-06T02:42:54;96695.31;;;17.55;97.57
1371;BME280;14306;49.942;11.570;2023-08-06T02:45:23;96699.72;;;17.18;98.32
1371;BME280;14306;49.942;11.570;2023-08-06T02:47:50;96697.25;;;17.32;97.66
1371;BME280;14306;49.942;11.570;2023-08-06T02:50:18;96695.97;;;17.48;97.07
1371;BME280;14306;49.942;11.570;2023-08-06T02:52:46;96694.06;;;17.30;97.04
1371;BME280;14306;49.942;11.570;2023-08-06T02:55:14;96692.25;;;17.37;97.57
1371;BME280;14306;49.942;11.570;2023-08-06T02:57:42;96690.50;;;17.07;97.73
1371;BME280;14306;49.942;11.570;2023-08-06T03:00:10;96689.06;;;17.35;97.32
1371;BME280;14306;49.942;11.570;2023-08-06T03:02:40;96687.38;;;17.27;96.60
1371;BME280;14306;49.942;11.570;2023-08-06T03:05:08;96681.28;;;17.15;97.40
1371;BME280;14306;49.942;11.570;2023-08-06T03:07:35;96675.97;;;17.03;97.98
1371;BME280;14306;49.942;11.570;2023-08-06T03:10:04;96673.59;;;17.01;98.11
1371;BME280;14306;49.942;11.570;2023-08-06T03:12:32;96668.88;;;16.79;98.27
1371;BME280;14306;49.942;11.570;2023-08-06T03:15:00;96673.97;;;17.00;98.39
1371;BME280;14306;49.942;11.570;2023-08-06T03:17:28;96674.22;;;16.72;99.48
1371;BME280;14306;49.942;11.570;2023-08-06T03:19:57;96670.56;;;16.65;99.20
1371;BME280;14306;49.942;11.570;2023-08-06T03:22:25;96667.16;;;16.52;99.39
1371;BME280;14306;49.942;11.570;2023-08-06T03:24:53;96674.88;;;16.47;98.32
1371;BME280;14306;49.942;11.570;2023-08-06T03:27:21;96671.97;;;16.40;99.46
1371;BME280;14306;49.942;11.570;2023-08-06T03:30:03;96666.06;;;16.38;99.08
1371;BME280;14306;49.942;11.570;2023-08-06T03:32:31;96666.09;;;16.57;98.80
1371;BME280;14306;49.942;11.570;2023-08-06T03:35:01;96661.28;;;16.50;99.18
1371;BME280;14306;49.942;11.570;2023-08-06T03:37:28;96658.34;;;16.24;99.22
1371;BME280;14306;49.942;11.570;2023-08-06T03:39:56;96667.59;;;16.54;98.47
1371;BME280;14306;49.942;11.570;2023-08-06T03:42:24;96650.84;;;16.56;98.51
1371;BME280;14306;49.942;11.570;2023-08-06T03:44:52;96646.91;;;16.53;98.09
1371;BME280;14306;49.942;11.570;2023-08-06T03:47:20;96659.06;;;16.21;98.02
1371;BME280;14306;49.942;11.570;2023-08-06T03:49:48;96655.25;;;16.07;98.04
1371;BME280;14306;49.942;11.570;2023-08-06T03:52:18;96651.53;;;16.15;99.02
1371;BME280;14306;49.942;11.570;2023-08-06T03:54:45;96654.59;;;16.13;98.29
1371;BME280;14306;49.942;11.570;2023-08-06T03:57:14;96648.97;;;16.06;98.51
1371;BME280;14306;49.942;11.570;2023-08-06T03:59:42;96636.28;;;16.14;98.66
1371;BME280;14306;49.942;11.570;2023-08-06T04:02:20;96638.84;;;16.07;98.45
1371;BME280;14306;49.942;11.570;2023-08-06T04:04:48;96644.53;;;16.17;98.18
1371;BME280;14306;49.942;11.570;2023-08-06T04:07:18;96644.31;;;16.07;98.16
1371;BME280;14306;49.942;11.570;2023-08-06T04:09:56;96635.91;;;15.96;100.00
1371;BME280;14306;49.942;11.570;2023-08-06T04:12:25;96643.47;;;16.03;99.43
1371;BME280;14306;49.942;11.570;2023-08-06T04:14:53;96641.72;;;15.95;99.58
1371;BME280;14306;49.942;11.570;2023-08-06T04:17:21;96636.94;;;16.07;98.57
1371;BME280;14306;49.942;11.570;2023-08-06T04:19:52;96628.28;;;16.05;98.89
1371;BME280;14306;49.942;11.570;2023-08-06T04:22:21;96644.19;;;16.19;98.30
1371;BME280;14306;49.942;11.570;2023-08-06T04:24:49;96634.19;;;16.07;98.26
1371;BME280;14306;49.942;11.570;2023-08-06T04:27:18;96641.00;;;15.98;98.48
1371;BME280;14306;49.942;11.570;2023-08-06T04:29:46;96639.22;;;16.05;99.29
1371;BME280;14306;49.942;11.570;2023-08-06T04:32:14;96639.56;;;16.04;99.18
1371;BME280;14306;49.942;11.570;2023-08-06T04:34:42;96635.69;;;16.05;98.14
1371;BME280;14306;49.942;11.570;2023-08-06T04:37:10;96638.22;;;16.13;98.48
1371;BME280;14306;49.942;11.570;2023-08-06T04:39:40;96632.69;;;16.10;98.25
1371;BME280;14306;49.942;11.570;2023-08-06T04:42:08;96638.31;;;16.17;98.40
1371;BME280;14306;49.942;11.570;2023-08-06T04:44:35;96626.34;;;16.06;99.02
1371;BME280;14306;49.942;11.570;2023-08-06T04:47:04;96644.38;;;16.10;98.59
1371;BME280;14306;49.942;11.570;2023-08-06T04:49:31;96638.66;;;16.15;99.09
1371;BME280;14306;49.942;11.570;2023-08-06T04:51:59;96637.19;;;16.02;100.00
1371;BME280;14306;49.942;11.570;2023-08-06T04:54:27;96643.34;;;15.99;98.82
1371;BME280;14306;49.942;11.570;2023-08-06T04:56:57;96640.13;;;16.13;99.39
1371;BME280;14306;49.942;11.570;2023-08-06T04:59:25;96632.25;;;16.08;97.82
1371;BME280;14306;49.942;11.570;2023-08-06T05:01:53;96635.28;;;16.22;98.59
1371;BME280;14306;49.942;11.570;2023-08-06T05:04:22;96636.53;;;16.43;97.10
1371;BME280;14306;49.942;11.570;2023-08-06T05:06:50;96633.91;;;16.31;96.98
1371;BME280;14306;49.942;11.570;2023-08-06T05:09:18;96630.81;;;16.33;98.34
1371;BME280;14306;49.942;11.570;2023-08-06T05:11:47;96633.34;;;16.41;98.22
1371;BME280;14306;49.942;11.570;2023-08-06T05:14:16;96639.09;;;16.36;97.83
1371;BME280;14306;49.942;11.570;2023-08-06T05:16:44;96636.56;;;16.28;98.85
1371;BME280;14306;49.942;11.570;2023-08-06T05:19:12;96629.13;;;16.44;99.21
1371;BME280;14306;49.942;11.570;2023-08-06T05:21:40;96638.38;;;16.39;98.29
1371;BME280;14306;49.942;11.570;2023-08-06T05:24:07;96636.59;;;16.47;97.77
1371;BME280;14306;49.942;11.570;2023-08-06T05:26:36;96636.44;;;16.40;96.66
1371;BME280;14306;49.942;11.570;2023-08-06T05:29:04;96637.03;;;16.49;97.52
1371;BME280;14306;49.942;11.570;2023-08-06T05:31:33;96642.50;;;16.49;97.22
1371;BME280;14306;49.942;11.570;2023-08-06T05:34:01;96643.00;;;16.54;97.22
1371;BME280;14306;49.942;11.570;2023-08-06T05:36:29;96632.56;;;16.41;97.33
1371;BME280;14306;49.942;11.570;2023-08-06T05:38:57;96637.50;;;16.35;98.10
1371;BME280;14306;49.942;11.570;2023-08-06T05:41:25;96644.16;;;16.53;98.04
1371;BME280;14306;49.942;11.570;2023-08-06T05:43:53;96643.03;;;16.39;98.37
1371;BME280;14306;49.942;11.570;2023-08-06T05:46:21;96647.50;;;16.66;97.90
1371;BME280;14306;49.942;11.570;2023-08-06T05:48:51;96640.97;;;16.51;98.05
1371;BME280;14306;49.942;11.570;2023-08-06T05:51:19;96640.94;;;16.48;99.17
1371;BME280;14306;49.942;11.570;2023-08-06T05:53:47;96638.03;;;16.41;97.65
1371;BME280;14306;49.942;11.570;2023-08-06T05:56:17;96631.84;;;16.63;97.19
1371;BME280;14306;49.942;11.570;2023-08-06T05:58:45;96637.91;;;16.94;97.08
1371;BME280;14306;49.942;11.570;2023-08-06T06:01:14;96628.97;;;16.97;96.17
1371;BME280;14306;49.942;11.570;2023-08-06T06:03:42;96632.16;;;16.99;95.40
1371;BME280;14306;49.942;11.570;2023-08-06T06:06:11;96635.09;;;16.91;97.68
1371;BME280;14306;49.942;11.570;2023-08-06T06:08:42;96635.75;;;17.03;97.16
1371;BME280;14306;49.942;11.570;2023-08-06T06:11:10;96621.25;;;17.03;97.22
1371;BME280;14306;49.942;11.570;2023-08-06T06:13:38;96625.78;;;17.14;96.45
1371;BME280;14306;49.942;11.570;2023-08-06T06:16:06;96619.19;;;17.19;96.16
1371;BME280;14306;49.942;11.570;2023-08-06T06:18:34;96610.56;;;17.17;95.76
1371;BME280;14306;49.942;11.570;2023-08-06T06:21:02;96611.56;;;17.31;96.72
1371;BME280;14306;49.942;11.570;2023-08-06T06:23:31;96614.91;;;17.21;95.68
1371;BME280;14306;49.942;11.570;2023-08-06T06:26:00;96611.53;;;17.50;95.83
1371;BME280;14306;49.942;11.570;2023-08-06T06:28:28;96607.84;;;17.65;94.92
1371;BME280;14306;49.942;11.570;2023-08-06T06:31:00;96602.75;;;17.93;94.33
1371;BME280;14306;49.942;11.570;2023-08-06T06:33:28;96603.88;;;17.89;93.35
1371;BME280;14306;49.942;11.570;2023-08-06T06:35:55;96609.81;;;18.50;94.24
1371;BME280;14306;49.942;11.570;2023-08-06T06:38:23;96603.75;;;18.70;92.80
1371;BME280;14306;49.942;11.570;2023-08-06T06:40:56;96615.53;;;19.11;94.57
1371;BME280;14306;49.942;11.570;2023-08-06T06:43:24;96602.75;;;19.26;90.86
1371;BME280;14306;49.942;11.570;2023-08-06T06:45:53;96602.34;;;19.78;90.56
1371;BME280;14306;49.942;11.570;2023-08-06T06:48:21;96606.75;;;20.57;90.09
1371;BME280;14306;49.942;11.570;2023-08-06T06:50:49;96621.38;;;20.89;86.48
1371;BME280;14306;49.942;11.570;2023-08-06T06:53:17;96603.75;;;20.12;85.54
1371;BME280;14306;49.942;11.570;2023-08-06T06:55:45;96609.31;;;20.19;86.98
1371;BME280;14306;49.942;11.570;2023-08-06T06:58:17;96603.16;;;20.46;85.83
1371;BME280;14306;49.942;11.570;2023-08-06T07:00:45;96600.44;;;20.53;84.49
1371;BME280;14306;49.942;11.570;2023-08-06T07:03:13;96604.19;;;20.17;84.80
1371;BME280;14306;49.942;11.570;2023-08-06T07:05:43;96597.16;;;20.27;82.50
1371;BME280;14306;49.942;11.570;2023-08-06T07:08:11;96602.94;;;20.08;82.26
1371;BME280;14306;49.942;11.570;2023-08-06T07:10:40;96605.06;;;20.39;83.72
1371;BME280;14306;49.942;11.570;2023-08-06T07:13:09;96600.75;;;20.38;82.69
1371;BME280;14306;49.942;11.570;2023-08-06T07:15:39;96608.41;;;20.90;81.62
1371;BME280;14306;49.942;11.570;2023-08-06T07:18:07;96603.09;;;20.32;83.21
1371;BME280;14306;49.942;11.570;2023-08-06T07:20:35;96597.31;;;20.69;84.30
1371;BME280;14306;49.942;11.570;2023-08-06T07:23:04;96605.72;;;21.46;82.39
1371;BME280;14306;49.942;11.570;2023-08-06T07:25:34;96597.84;;;21.90;81.06
1371;BME280;14306;49.942;11.570;2023-08-06T07:28:03;96598.25;;;21.36;82.83
1371;BME280;14306;49.942;11.570;2023-08-06T07:30:32;96600.63;;;21.83;78.61
1371;BME280;14306;49.942;11.570;2023-08-06T07:33:01;96603.94;;;23.36;78.46
1371;BME280;14306;49.942;11.570;2023-08-06T07:35:28;96595.84;;;26.46;61.15
1371;BME280;14306;49.942;11.570;2023-08-06T07:37:56;96592.88;;;27.79;70.59
1371;BME280;14306;49.942;11.570;2023-08-06T07:40:24;96585.03;;;28.06;71.00
1371;BME280;14306;49.942;11.570;2023-08-06T07:42:52;96593.03;;;29.43;59.44
1371;BME280;14306;49.942;11.570;2023-08-06T07:45:20;96574.78;;;27.39;61.24
1371;BME280;14306;49.942;11.570;2023-08-06T07:47:48;96570.50;;;25.55;60.06
1371;BME280;14306;49.942;11.570;2023-08-06T07:50:18;96579.22;;;26.23;60.09
1371;BME280;14306;49.942;11.570;2023-08-06T07:52:45;96566.56;;;24.73;67.20
1371;BME280;14306;49.942;11.570;2023-08-06T07:55:14;96565.53;;;23.89;65.25
1371;BME280;14306;49.942;11.570;2023-08-06T07:57:42;96565.09;;;23.98;67.83
1371;BME280;14306;49.942;11.570;2023-08-06T08:00:10;96575.16;;;24.48;66.86
1371;BME280;14306;49.942;11.570;2023-08-06T08:02:38;96575.16;;;24.82;64.48
1371;BME280;14306;49.942;11.570;2023-08-06T08:05:07;96563.91;;;24.32;64.72
1371;BME280;14306;49.942;11.570;2023-08-06T08:07:36;96563.47;;;24.34;66.20
1371;BME280;14306;49.942;11.570;2023-08-06T08:10:06;96552.94;;;23.85;64.40
1371;BME280;14306;49.942;11.570;2023-08-06T08:12:33;96574.97;;;25.72;62.06
1371;BME280;14306;49.942;11.570;2023-08-06T08:15:01;96591.16;;;28.01;53.00
1371;BME280;14306;49.942;11.570;2023-08-06T08:17:30;96585.88;;;29.17;52.99
1371;BME280;14306;49.942;11.570;2023-08-06T08:19:58;96606.28;;;30.70;47.30
1371;BME280;14306;49.942;11.570;2023-08-06T08:22:26;96609.13;;;31.52;43.74
1371;BME280;14306;49.942;11.570;2023-08-06T08:24:55;96557.63;;;29.02;45.57
1371;BME280;14306;49.942;11.570;2023-08-06T08:27:23;96575.94;;;30.13;44.95
1371;BME280;14306;49.942;11.570;2023-08-06T08:29:51;96559.09;;;29.32;45.66
1371;BME280;14306;49.942;11.570;2023-08-06T08:32:19;96555.28;;;29.01;45.17
1371;BME280;14306;49.942;11.570;2023-08-06T08:34:47;96510.47;;;27.17;47.64
1371;BME280;14306;49.942;11.570;2023-08-06T08:37:14;96529.81;;;27.40;48.57
1371;BME280;14306;49.942;11.570;2023-08-06T08:39:43;96506.91;;;25.87;51.93
1371;BME280;14306;49.942;11.570;2023-08-06T08:42:12;96521.88;;;25.93;52.20
1371;BME280;14306;49.942;11.570;2023-08-06T08:44:42;96510.25;;;25.32;53.73
1371;BME280;14306;49.942;11.570;2023-08-06T08:47:10;96532.88;;;23.33;65.65
1371;BME280;14306;49.942;11.570;2023-08-06T08:49:38;96534.75;;;22.89;74.08
1371;BME280;14306;49.942;11.570;2023-08-06T08:52:07;96535.88;;;23.02;82.99
1371;BME280;14306;49.942;11.570;2023-08-06T08:54:38;96546.09;;;25.20;77.87
1371;BME280;14306;49.942;11.570;2023-08-06T08:57:07;96543.94;;;27.49;68.76
1371;BME280;14306;49.942;11.570;2023-08-06T08:59:36;96539.91;;;28.68;56.13
1371;BME280;14306;49.942;11.570;2023-08-06T09:02:04;96558.91;;;29.86;50.66
1371;BME280;14306;49.942;11.570;2023-08-06T09:04:33;96546.19;;;29.85;47.59
1371;BME280;14306;49.942;11.570;2023-08-06T09:07:04;96560.09;;;30.87;46.27
1371;BME280;14306;49.942;11.570;2023-08-06T09:09:34;96561.41;;;30.73;45.85
1371;BME280;14306;49.942;11.570;2023-08-06T09:12:12;96565.81;;;31.35;41.41
1371;BME280;14306;49.942;11.570;2023-08-06T09:14:43;96541.47;;;30.28;42.58
1371;BME280;14306;49.942;11.570;2023-08-06T09:17:11;96572.53;;;31.47;42.37
1371;BME280;14306;49.942;11.570;2023-08-06T09:19:41;96557.53;;;31.01;38.27
1371;BME280;14306;49.942;11.570;2023-08-06T09:22:12;96576.56;;;31.85;38.79
1371;BME280;14306;49.942;11.570;2023-08-06T09:24:41;96523.19;;;29.68;40.58
1371;BME280;14306;49.942;11.570;2023-08-06T09:27:11;96551.38;;;30.42;39.55
1371;BME280;14306;49.942;11.570;2023-08-06T09:29:43;96513.63;;;29.19;42.42
1371;BME280;14306;49.942;11.570;2023-08-06T09:32:12;96447.72;;;26.49;46.12
1371;BME280;14306;49.942;11.570;2023-08-06T09:34:41;96464.56;;;26.22;48.07
1371;BME280;14306;49.942;11.570;2023-08-06T09:37:10;96508.91;;;27.80;46.27
1371;BME280;14306;49.942;11.570;2023-08-06T09:39:39;96546.78;;;29.55;41.17
1371;BME280;14306;49.942;11.570;2023-08-06T09:42:07;96510.22;;;28.20;42.29
1371;BME280;14306;49.942;11.570;2023-08-06T09:44:36;96500.34;;;28.03;43.70
1371;BME280;14306;49.942;11.570;2023-08-06T09:47:07;96484.19;;;25.26;53.50
1371;BME280;14306;49.942;11.570;2023-08-06T09:49:44;96523.19;;;23.55;60.24
1371;BME280;14306;49.942;11.570;2023-08-06T09:52:13;96542.56;;;22.25;70.93
1371;BME280;14306;49.942;11.570;2023-08-06T09:54:43;96545.38;;;20.46;80.72
1371;BME280;14306;49.942;11.570;2023-08-06T09:57:11;96546.13;;;19.61;87.41
1371;BME280;14306;49.942;11.570;2023-08-06T09:59:41;96539.88;;;19.71;87.35
1371;BME280;14306;49.942;11.570;2023-08-06T10:02:13;96534.34;;;19.57;86.12
1371;BME280;14306;49.942;11.570;2023-08-06T10:04:44;96537.47;;;19.56;87.52
1371;BME280;14306;49.942;11.570;2023-08-06T10:07:21;96526.63;;;19.26;92.05
1371;BME280;14306;49.942;11.570;2023-08-06T10:09:51;96526.47;;;19.08;90.18
1371;BME280;14306;49.942;11.570;2023-08-06T10:12:20;96522.06;;;19.44;91.18
1371;BME280;14306;49.942;11.570;2023-08-06T10:14:49;96536.19;;;20.11;89.92
1371;BME280;14306;49.942;11.570;2023-08-06T10:17:20;96538.84;;;19.97;89.06
1371;BME280;14306;49.942;11.570;2023-08-06T10:19:54;96534.19;;;20.08;86.28
1371;BME280;14306;49.942;11.570;2023-08-06T10:22:23;96537.97;;;20.75;86.57
1371;BME280;14306;49.942;11.570;2023-08-06T10:24:52;96523.88;;;21.04;87.54
1371;BME280;14306;49.942;11.570;2023-08-06T10:27:29;96530.06;;;21.99;85.15
1371;BME280;14306;49.942;11.570;2023-08-06T10:30:25;96516.38;;;22.65;77.27
1371;BME280;14306;49.942;11.570;2023-08-06T10:32:56;96511.84;;;24.50;67.79
1371;BME280;14306;49.942;11.570;2023-08-06T10:35:28;96502.19;;;25.64;71.16
1371;BME280;14306;49.942;11.570;2023-08-06T10:38:03;96495.56;;;26.01;66.67
1371;BME280;14306;49.942;11.570;2023-08-06T10:40:32;96488.53;;;26.71;65.45
1371;BME280;14306;49.942;11.570;2023-08-06T10:43:01;96484.00;;;26.22;63.93
1371;BME280;14306;49.942;11.570;2023-08-06T10:45:29;96476.19;;;26.72;66.98
1371;BME280;14306;49.942;11.570;2023-08-06T10:47:59;96468.59;;;25.78;64.51
1371;BME280;14306;49.942;11.570;2023-08-06T10:50:27;96467.16;;;26.68;67.23
1371;BME280;14306;49.942;11.570;2023-08-06T10:52:54;96473.47;;;25.28;62.89
1371;BME280;14306;49.942;11.570;2023-08-06T10:55:24;96477.00;;;24.23;66.47
1371;BME280;14306;49.942;11.570;2023-08-06T10:57:53;96467.78;;;24.33;68.55
1371;BME280;14306;49.942;11.570;2023-08-06T11:00:22;96468.31;;;25.73;61.29
1371;BME280;14306;49.942;11.570;2023-08-06T11:02:51;96482.88;;;26.20;60.37
1371;BME280;14306;49.942;11.570;2023-08-06T11:05:21;96472.94;;;26.93;63.17
1371;BME280;14306;49.942;11.570;2023-08-06T11:07:48;96458.69;;;26.01;59.34
1371;BME280;14306;49.942;11.570;2023-08-06T11:10:18;96444.56;;;24.53;60.22
1371;BME280;14306;49.942;11.570;2023-08-06T11:12:46;96446.19;;;24.51;61.88
1371;BME280;14306;49.942;11.570;2023-08-06T11:15:13;96459.84;;;24.35;60.81
1371;BME280;14306;49.942;11.570;2023-08-06T11:17:42;96454.22;;;24.12;62.41
1371;BME280;14306;49.942;11.570;2023-08-06T11:20:10;96463.44;;;24.88;62.55
1371;BME280;14306;49.942;11.570;2023-08-06T11:22:41;96454.97;;;25.45;57.19
1371;BME280;14306;49.942;11.570;2023-08-06T11:25:09;96468.50;;;25.62;56.54
1371;BME280;14306;49.942;11.570;2023-08-06T11:27:37;96465.38;;;25.60;55.09
1371;BME280;14306;49.942;11.570;2023-08-06T11:30:06;96443.25;;;24.88;56.02
1371;BME280;14306;49.942;11.570;2023-08-06T11:32:44;96438.47;;;24.35;57.05
1371;BME280;14306;49.942;11.570;2023-08-06T11:35:14;96437.16;;;24.17;57.21
1371;BME280;14306;49.942;11.570;2023-08-06T11:37:45;96438.88;;;23.70;58.29
1371;BME280;14306;49.942;11.570;2023-08-06T11:40:14;96427.06;;;23.29;59.01
1371;BME280;14306;49.942;11.570;2023-08-06T11:42:43;96428.75;;;23.16;61.27
1371;BME280;14306;49.942;11.570;2023-08-06T11:45:11;96440.47;;;23.34;60.46
1371;BME280;14306;49.942;11.570;2023-08-06T11:47:39;96456.03;;;24.52;57.85
1371;BME280;14306;49.942;11.570;2023-08-06T11:50:08;96444.50;;;24.30;57.51
1371;BME280;14306;49.942;11.570;2023-08-06T11:52:39;96454.72;;;25.13;55.47
1371;BME280;14306;49.942;11.570;2023-08-06T11:55:10;96462.63;;;25.80;53.81
1371;BME280;14306;49.942;11.570;2023-08-06T11:57:39;96459.53;;;25.98;52.82
1371;BME280;14306;49.942;11.570;2023-08-06T12:00:08;96474.50;;;26.59;50.03
1371;BME280;14306;49.942;11.570;2023-08-06T12:02:38;96488.13;;;26.89;50.85
1371;BME280;14306;49.942;11.570;2023-08-06T12:05:11;96488.66;;;27.64;48.96
1371;BME280;14306;49.942;11.570;2023-08-06T12:07:41;96502.66;;;27.92;47.65
1371;BME280;14306;49.942;11.570;2023-08-06T12:10:12;96489.75;;;27.38;47.73
1371;BME280;14306;49.942;11.570;2023-08-06T12:12:40;96477.41;;;27.23;48.09
1371;BME280;14306;49.942;11.570;2023-08-06T12:15:09;96473.47;;;27.04;47.87
1371;BME280;14306;49.942;11.570;2023-08-06T12:17:38;96465.72;;;27.12;48.02
1371;BME280;14306;49.942;11.570;2023-08-06T12:20:07;96478.03;;;27.30;47.64
1371;BME280;14306;49.942;11.570;2023-08-06T12:22:35;96496.41;;;28.17;45.98
1371;BME280;14306;49.942;11.570;2023-08-06T12:25:06;96505.13;;;28.31;44.68
1371;BME280;14306;49.942;11.570;2023-08-06T12:27:37;96484.03;;;27.89;44.21
1371;BME280;14306;49.942;11.570;2023-08-06T12:30:06;96465.56;;;27.35;45.90
1371;BME280;14306;49.942;11.570;2023-08-06T12:32:34;96447.88;;;26.42;47.22
1371;BME280;14306;49.942;11.570;2023-08-06T12:35:03;96433.50;;;25.03;53.45
1371;BME280;14306;49.942;11.570;2023-08-06T12:37:31;96424.31;;;24.00;56.81
1371;BME280;14306;49.942;11.570;2023-08-06T12:39:59;96438.31;;;24.46;55.36
1371;BME280;14306;49.942;11.570;2023-08-06T12:42:49;96450.97;;;25.00;53.89
1371;BME280;14306;49.942;11.570;2023-08-06T12:45:19;96448.44;;;24.86;54.47
1371;BME280;14306;49.942;11.570;2023-08-06T12:47:48;96455.63;;;25.72;52.61
1371;BME280;14306;49.942;11.570;2023-08-06T12:50:17;96463.56;;;25.93;51.65
1371;BME280;14306;49.942;11.570;2023-08-06T12:52:45;96468.69;;;26.34;49.74
1371;BME280;14306;49.942;11.570;2023-08-06T12:55:13;96460.78;;;26.32;49.86
1371;BME280;14306;49.942;11.570;2023-08-06T12:57:43;96454.69;;;26.02;49.93
1371;BME280;14306;49.942;11.570;2023-08-06T13:00:25;96451.19;;;26.17;50.79
1371;BME280;14306;49.942;11.570;2023-08-06T13:02:53;96446.34;;;26.41;50.01
1371;BME280;14306;49.942;11.570;2023-08-06T13:05:22;96437.78;;;26.32;49.34
1371;BME280;14306;49.942;11.570;2023-08-06T13:07:50;96440.41;;;26.39;48.02